sensor_id;sensor_type;location;lat;lon;timestamp;pressure;altitude;pressure_sealevel;temperature;humidity
61573;BME280;47465;43.094;12.434;2023-02-13T00:00:28;100406.25;;;6.54;67.68
61573;BME280;47465;43.094;12.434;2023-02-13T00:02:54;100403.63;;;6.56;67.60
61573;BME280;47465;43.094;12.434;2023-02-13T00:05:20;100385.00;;;6.47;67.42
61573;BME280;47465;43.094;12.434;2023-02-13T00:07:46;100409.66;;;6.47;68.05
61573;BME280;47465;43.094;12.434;2023-02-13T00:10:12;100395.16;;;6.22;68.75
61573;BME280;47465;43.094;12.434;2023-02-13T00:12:38;100412.06;;;6.32;68.71
61573;BME280;47465;43.094;12.434;2023-02-13T00:15:06;100429.59;;;6.28;69.05
61573;BME280;47465;43.094;12.434;2023-02-13T00:17:33;100432.19;;;6.24;69.11
61573;BME280;47465;43.094;12.434;2023-02-13T00:19:59;100435.44;;;6.09;69.65
61573;BME280;47465;43.094;12.434;2023-02-13T00:22:25;100445.28;;;6.16;69.96
61573;BME280;47465;43.094;12.434;2023-02-13T00:24:51;100432.06;;;6.16;69.81
61573;BME280;47465;43.094;12.434;2023-02-13T00:27:17;100440.97;;;6.23;69.90
61573;BME280;47465;43.094;12.434;2023-02-13T00:29:43;100406.34;;;6.06;70.11
61573;BME280;47465;43.094;12.434;2023-02-13T00:32:10;100421.34;;;6.08;70.17
61573;BME280;47465;43.094;12.434;2023-02-13T00:34:36;100424.13;;;6.17;69.92
61573;BME280;47465;43.094;12.434;2023-02-13T00:37:02;100433.06;;;6.23;69.88
61573;BME280;47465;43.094;12.434;2023-02-13T00:39:28;100434.94;;;6.30;69.57
61573;BME280;47465;43.094;12.434;2023-02-13T00:41:54;100426.06;;;6.25;69.81
61573;BME280;47465;43.094;12.434;2023-02-13T00:44:20;100458.72;;;6.30;69.99
61573;BME280;47465;43.094;12.434;2023-02-13T00:46:46;100416.97;;;6.10;69.94
61573;BME280;47465;43.094;12.434;2023-02-13T00:49:13;100416.09;;;6.10;70.14
61573;BME280;47465;43.094;12.434;2023-02-13T00:51:39;100447.19;;;6.25;70.49
61573;BME280;47465;43.094;12.434;2023-02-13T00:54:05;100457.06;;;6.36;69.91
61573;BME280;47465;43.094;12.434;2023-02-13T00:56:31;100409.88;;;6.06;69.86
61573;BME280;47465;43.094;12.434;2023-02-13T00:58:56;100421.31;;;6.05;69.86
61573;BME280;47465;43.094;12.434;2023-02-13T01:01:22;100410.56;;;5.96;70.24
61573;BME280;47465;43.094;12.434;2023-02-13T01:03:48;100432.75;;;6.06;70.39
61573;BME280;47465;43.094;12.434;2023-02-13T01:06:15;100453.09;;;6.11;70.50
61573;BME280;47465;43.094;12.434;2023-02-13T01:08:41;100441.53;;;6.05;70.01
61573;BME280;47465;43.094;12.434;2023-02-13T01:11:07;100446.06;;;6.13;70.27
61573;BME280;47465;43.094;12.434;2023-02-13T01:13:33;100421.13;;;5.96;70.18
61573;BME280;47465;43.094;12.434;2023-02-13T01:15:59;100420.28;;;5.97;70.29
61573;BME280;47465;43.094;12.434;2023-02-13T01:18:25;100428.94;;;5.91;70.79
61573;BME280;47465;43.094;12.434;2023-02-13T01:20:58;100420.94;;;5.87;70.58
61573;BME280;47465;43.094;12.434;2023-02-13T01:23:29;100428.88;;;5.88;70.49
61573;BME280;47465;43.094;12.434;2023-02-13T01:25:55;100444.88;;;5.94;70.40
61573;BME280;47465;43.094;12.434;2023-02-13T01:28:21;100439.50;;;5.91;70.32
61573;BME280;47465;43.094;12.434;2023-02-13T01:30:52;100414.50;;;5.72;70.37
61573;BME280;47465;43.094;12.434;2023-02-13T01:33:18;100434.72;;;5.70;70.96
61573;BME280;47465;43.094;12.434;2023-02-13T01:35:44;100456.78;;;5.75;71.11
61573;BME280;47465;43.094;12.434;2023-02-13T01:38:10;100456.66;;;5.69;71.28
61573;BME280;47465;43.094;12.434;2023-02-13T01:40:43;100449.28;;;5.51;71.58
61573;BME280;47465;43.094;12.434;2023-02-13T01:43:11;100455.25;;;5.43;71.94
61573;BME280;47465;43.094;12.434;2023-02-13T01:45:37;100472.25;;;5.57;71.59
61573;BME280;47465;43.094;12.434;2023-02-13T01:48:05;100472.25;;;5.55;71.20
61573;BME280;47465;43.094;12.434;2023-02-13T01:50:33;100482.84;;;5.59;70.95
61573;BME280;47465;43.094;12.434;2023-02-13T01:53:06;100471.97;;;5.43;71.50
61573;BME280;47465;43.094;12.434;2023-02-13T01:55:34;100484.50;;;5.53;71.71
61573;BME280;47465;43.094;12.434;2023-02-13T01:58:07;100484.34;;;5.46;72.08
61573;BME280;47465;43.094;12.434;2023-02-13T02:00:34;100486.78;;;5.37;72.10
61573;BME280;47465;43.094;12.434;2023-02-13T02:03:05;100467.94;;;5.20;72.63
61573;BME280;47465;43.094;12.434;2023-02-13T02:05:33;100468.09;;;5.26;72.56
61573;BME280;47465;43.094;12.434;2023-02-13T02:08:03;100467.34;;;5.31;72.42
61573;BME280;47465;43.094;12.434;2023-02-13T02:10:30;100479.84;;;5.42;72.06
61573;BME280;47465;43.094;12.434;2023-02-13T02:13:02;100477.28;;;5.45;71.86
61573;BME280;47465;43.094;12.434;2023-02-13T02:15:31;100498.69;;;5.59;71.95
61573;BME280;47465;43.094;12.434;2023-02-13T02:18:05;100463.41;;;5.55;71.51
61573;BME280;47465;43.094;12.434;2023-02-13T02:20:53;100480.72;;;5.85;70.55
61573;BME280;47465;43.094;12.434;2023-02-13T02:23:51;100492.28;;;5.91;70.50
61573;BME280;47465;43.094;12.434;2023-02-13T02:29:40;100464.06;;;5.87;70.02
61573;BME280;47465;43.094;12.434;2023-02-13T02:32:25;100467.69;;;5.92;69.86
61573;BME280;47465;43.094;12.434;2023-02-13T02:35:01;100433.78;;;5.68;70.31
61573;BME280;47465;43.094;12.434;2023-02-13T02:37:37;100473.66;;;5.82;70.58
61573;BME280;47465;43.094;12.434;2023-02-13T02:40:14;100463.03;;;5.81;70.54
61573;BME280;47465;43.094;12.434;2023-02-13T02:42:59;100455.84;;;5.72;70.58
61573;BME280;47465;43.094;12.434;2023-02-13T02:45:34;100475.09;;;5.68;70.85
61573;BME280;47465;43.094;12.434;2023-02-13T02:48:10;100463.19;;;5.43;71.26
61573;BME280;47465;43.094;12.434;2023-02-13T02:51:18;100479.78;;;5.39;71.64
61573;BME280;47465;43.094;12.434;2023-02-13T02:53:55;100479.75;;;5.37;71.66
61573;BME280;47465;43.094;12.434;2023-02-13T02:56:33;100474.16;;;5.22;71.98
61573;BME280;47465;43.094;12.434;2023-02-13T02:59:04;100481.22;;;5.23;71.76
61573;BME280;47465;43.094;12.434;2023-02-13T03:02:07;100474.09;;;5.19;71.99
61573;BME280;47465;43.094;12.434;2023-02-13T03:05:16;100466.78;;;5.05;72.15
61573;BME280;47465;43.094;12.434;2023-02-13T03:08:20;100490.91;;;5.24;72.13
61573;BME280;47465;43.094;12.434;2023-02-13T03:11:06;100498.03;;;5.28;71.68
61573;BME280;47465;43.094;12.434;2023-02-13T03:14:05;100487.28;;;5.19;71.98
61573;BME280;47465;43.094;12.434;2023-02-13T03:16:33;100497.72;;;5.14;72.24
61573;BME280;47465;43.094;12.434;2023-02-13T03:19:40;100465.81;;;5.02;72.03
61573;BME280;47465;43.094;12.434;2023-02-13T03:22:52;100482.06;;;5.22;71.44
61573;BME280;47465;43.094;12.434;2023-02-13T03:25:28;100485.75;;;5.30;70.81
61573;BME280;47465;43.094;12.434;2023-02-13T03:28:05;100484.38;;;5.47;70.08
61573;BME280;47465;43.094;12.434;2023-02-13T03:31:14;100487.28;;;5.60;69.52
61573;BME280;47465;43.094;12.434;2023-02-13T03:33:54;100488.06;;;5.55;69.04
61573;BME280;47465;43.094;12.434;2023-02-13T03:36:30;100469.06;;;5.29;69.82
61573;BME280;47465;43.094;12.434;2023-02-13T03:39:43;100498.31;;;5.42;69.80
61573;BME280;47465;43.094;12.434;2023-02-13T03:42:17;100505.41;;;5.03;71.32
61573;BME280;47465;43.094;12.434;2023-02-13T03:44:48;100508.56;;;4.88;71.71
61573;BME280;47465;43.094;12.434;2023-02-13T03:47:37;100514.84;;;4.59;73.20
61573;BME280;47465;43.094;12.434;2023-02-13T03:50:05;100529.50;;;4.47;73.94
61573;BME280;47465;43.094;12.434;2023-02-13T03:52:38;100526.34;;;4.27;74.82
61573;BME280;47465;43.094;12.434;2023-02-13T03:55:09;100522.09;;;4.01;75.20
61573;BME280;47465;43.094;12.434;2023-02-13T03:58:13;100522.81;;;3.63;77.30
61573;BME280;47465;43.094;12.434;2023-02-13T04:01:17;100523.34;;;3.23;78.25
61573;BME280;47465;43.094;12.434;2023-02-13T04:03:49;100529.00;;;2.79;80.71
61573;BME280;47465;43.094;12.434;2023-02-13T04:06:19;100537.47;;;2.71;81.70
61573;BME280;47465;43.094;12.434;2023-02-13T04:08:45;100546.13;;;2.41;84.65
61573;BME280;47465;43.094;12.434;2023-02-13T04:11:14;100515.06;;;2.03;86.11
61573;BME280;47465;43.094;12.434;2023-02-13T04:13:45;100535.28;;;2.06;87.36
61573;BME280;47465;43.094;12.434;2023-02-13T04:16:17;100529.97;;;2.04;88.19
61573;BME280;47465;43.094;12.434;2023-02-13T04:18:47;100527.19;;;2.00;88.34
61573;BME280;47465;43.094;12.434;2023-02-13T04:21:13;100533.25;;;1.99;88.71
61573;BME280;47465;43.094;12.434;2023-02-13T04:23:39;100540.16;;;1.95;88.48
61573;BME280;47465;43.094;12.434;2023-02-13T04:26:07;100524.63;;;1.77;88.80
61573;BME280;47465;43.094;12.434;2023-02-13T04:28:33;100547.25;;;1.75;91.07
61573;BME280;47465;43.094;12.434;2023-02-13T04:31:00;100556.78;;;1.72;90.58
61573;BME280;47465;43.094;12.434;2023-02-13T04:33:28;100554.72;;;1.64;90.63
61573;BME280;47465;43.094;12.434;2023-02-13T04:35:53;100525.44;;;1.52;90.76
61573;BME280;47465;43.094;12.434;2023-02-13T04:38:19;100529.75;;;1.50;91.60
61573;BME280;47465;43.094;12.434;2023-02-13T04:40:45;100518.13;;;1.43;91.55
61573;BME280;47465;43.094;12.434;2023-02-13T04:43:11;100530.41;;;1.69;90.31
61573;BME280;47465;43.094;12.434;2023-02-13T04:45:37;100526.03;;;1.45;89.82
61573;BME280;47465;43.094;12.434;2023-02-13T04:48:03;100535.06;;;1.29;92.35
61573;BME280;47465;43.094;12.434;2023-02-13T04:50:30;100556.84;;;1.51;92.74
61573;BME280;47465;43.094;12.434;2023-02-13T04:52:56;100549.28;;;1.36;92.67
61573;BME280;47465;43.094;12.434;2023-02-13T04:55:23;100536.53;;;1.22;93.79
61573;BME280;47465;43.094;12.434;2023-02-13T04:57:51;100537.50;;;1.25;94.03
61573;BME280;47465;43.094;12.434;2023-02-13T05:00:18;100570.25;;;1.36;95.29
61573;BME280;47465;43.094;12.434;2023-02-13T05:02:44;100560.63;;;1.35;95.44
61573;BME280;47465;43.094;12.434;2023-02-13T05:05:10;100547.19;;;1.27;94.51
61573;BME280;47465;43.094;12.434;2023-02-13T05:07:37;100546.69;;;1.13;94.08
61573;BME280;47465;43.094;12.434;2023-02-13T05:10:03;100555.53;;;1.17;94.31
61573;BME280;47465;43.094;12.434;2023-02-13T05:12:29;100574.91;;;1.20;96.08
61573;BME280;47465;43.094;12.434;2023-02-13T05:14:55;100562.94;;;1.27;95.81
61573;BME280;47465;43.094;12.434;2023-02-13T05:17:21;100560.47;;;1.09;94.63
61573;BME280;47465;43.094;12.434;2023-02-13T05:19:47;100544.94;;;0.91;96.05
61573;BME280;47465;43.094;12.434;2023-02-13T05:22:12;100572.31;;;0.99;96.53
61573;BME280;47465;43.094;12.434;2023-02-13T05:25:07;100574.97;;;1.22;96.17
61573;BME280;47465;43.094;12.434;2023-02-13T05:27:33;100582.84;;;1.22;95.60
61573;BME280;47465;43.094;12.434;2023-02-13T05:29:59;100572.88;;;1.13;95.62
61573;BME280;47465;43.094;12.434;2023-02-13T05:32:25;100569.81;;;1.02;97.56
61573;BME280;47465;43.094;12.434;2023-02-13T05:34:51;100578.66;;;1.05;97.44
61573;BME280;47465;43.094;12.434;2023-02-13T05:37:16;100564.09;;;0.90;98.54
61573;BME280;47465;43.094;12.434;2023-02-13T05:39:42;100577.34;;;0.95;97.70
61573;BME280;47465;43.094;12.434;2023-02-13T05:42:10;100553.03;;;1.42;98.28
61573;BME280;47465;43.094;12.434;2023-02-13T05:44:35;100569.78;;;2.42;92.03
61573;BME280;47465;43.094;12.434;2023-02-13T05:47:01;100560.56;;;2.28;89.23
61573;BME280;47465;43.094;12.434;2023-02-13T05:49:27;100572.59;;;2.23;89.47
61573;BME280;47465;43.094;12.434;2023-02-13T05:51:53;100572.84;;;2.05;89.60
61573;BME280;47465;43.094;12.434;2023-02-13T05:54:19;100576.59;;;1.88;92.23
61573;BME280;47465;43.094;12.434;2023-02-13T05:56:45;100554.53;;;2.07;92.86
61573;BME280;47465;43.094;12.434;2023-02-13T05:59:13;100552.41;;;1.96;90.89
61573;BME280;47465;43.094;12.434;2023-02-13T06:01:38;100585.81;;;2.00;90.61
61573;BME280;47465;43.094;12.434;2023-02-13T06:04:04;100597.28;;;1.80;90.27
61573;BME280;47465;43.094;12.434;2023-02-13T06:06:30;100597.53;;;1.63;90.56
61573;BME280;47465;43.094;12.434;2023-02-13T06:08:56;100596.63;;;1.40;91.87
61573;BME280;47465;43.094;12.434;2023-02-13T06:11:22;100600.84;;;1.14;93.30
61573;BME280;47465;43.094;12.434;2023-02-13T06:13:48;100591.75;;;1.05;93.88
61573;BME280;47465;43.094;12.434;2023-02-13T06:16:15;100605.91;;;0.89;94.20
61573;BME280;47465;43.094;12.434;2023-02-13T06:18:41;100615.75;;;0.73;96.00
61573;BME280;47465;43.094;12.434;2023-02-13T06:21:07;100594.81;;;0.52;96.98
61573;BME280;47465;43.094;12.434;2023-02-13T06:23:33;100620.03;;;0.50;97.59
61573;BME280;47465;43.094;12.434;2023-02-13T06:26:01;100606.53;;;0.41;97.27
61573;BME280;47465;43.094;12.434;2023-02-13T06:28:27;100626.50;;;0.39;98.53
61573;BME280;47465;43.094;12.434;2023-02-13T06:30:53;100622.81;;;0.34;98.41
61573;BME280;47465;43.094;12.434;2023-02-13T06:33:20;100614.84;;;0.31;99.63
61573;BME280;47465;43.094;12.434;2023-02-13T06:35:46;100626.47;;;0.37;100.00
61573;BME280;47465;43.094;12.434;2023-02-13T06:38:12;100620.34;;;0.37;100.00
61573;BME280;47465;43.094;12.434;2023-02-13T06:40:37;100620.19;;;0.34;100.00
61573;BME280;47465;43.094;12.434;2023-02-13T06:43:03;100613.50;;;0.40;100.00
61573;BME280;47465;43.094;12.434;2023-02-13T06:45:29;100621.16;;;0.76;100.00
61573;BME280;47465;43.094;12.434;2023-02-13T06:47:55;100622.75;;;0.94;100.00
61573;BME280;47465;43.094;12.434;2023-02-13T06:50:22;100601.13;;;0.99;100.00
61573;BME280;47465;43.094;12.434;2023-02-13T06:52:49;100594.16;;;1.43;98.90
61573;BME280;47465;43.094;12.434;2023-02-13T06:55:16;100603.16;;;1.50;97.49
61573;BME280;47465;43.094;12.434;2023-02-13T06:57:43;100631.63;;;1.63;97.20
61573;BME280;47465;43.094;12.434;2023-02-13T07:00:11;100639.03;;;1.74;96.30
61573;BME280;47465;43.094;12.434;2023-02-13T07:02:38;100636.19;;;1.69;95.21
61573;BME280;47465;43.094;12.434;2023-02-13T07:05:05;100614.63;;;1.54;95.63
61573;BME280;47465;43.094;12.434;2023-02-13T07:07:39;100619.88;;;1.54;96.13
61573;BME280;47465;43.094;12.434;2023-02-13T07:10:07;100629.63;;;1.56;95.74
61573;BME280;47465;43.094;12.434;2023-02-13T07:12:33;100641.06;;;1.58;95.76
61573;BME280;47465;43.094;12.434;2023-02-13T07:15:01;100655.41;;;1.68;95.92
61573;BME280;47465;43.094;12.434;2023-02-13T07:17:27;100659.88;;;1.71;95.93
61573;BME280;47465;43.094;12.434;2023-02-13T07:19:52;100643.97;;;1.66;95.55
61573;BME280;47465;43.094;12.434;2023-02-13T07:22:18;100643.34;;;1.73;95.30
61573;BME280;47465;43.094;12.434;2023-02-13T07:24:46;100624.97;;;1.72;95.66
61573;BME280;47465;43.094;12.434;2023-02-13T07:27:11;100637.81;;;1.88;96.06
61573;BME280;47465;43.094;12.434;2023-02-13T07:29:37;100640.91;;;2.00;95.47
61573;BME280;47465;43.094;12.434;2023-02-13T07:32:03;100643.78;;;2.08;95.12
61573;BME280;47465;43.094;12.434;2023-02-13T07:34:31;100637.09;;;2.16;94.19
61573;BME280;47465;43.094;12.434;2023-02-13T07:36:57;100641.00;;;2.28;93.56
61573;BME280;47465;43.094;12.434;2023-02-13T07:39:23;100634.38;;;2.37;93.08
61573;BME280;47465;43.094;12.434;2023-02-13T07:41:50;100656.81;;;2.53;92.57
61573;BME280;47465;43.094;12.434;2023-02-13T07:44:16;100644.94;;;2.64;91.55
61573;BME280;47465;43.094;12.434;2023-02-13T07:46:42;100660.78;;;2.92;90.89
61573;BME280;47465;43.094;12.434;2023-02-13T07:49:08;100637.13;;;2.92;90.51
61573;BME280;47465;43.094;12.434;2023-02-13T07:51:34;100632.81;;;2.94;88.19
61573;BME280;47465;43.094;12.434;2023-02-13T07:54:00;100638.31;;;3.01;87.99
61573;BME280;47465;43.094;12.434;2023-02-13T07:56:27;100637.63;;;3.07;87.59
61573;BME280;47465;43.094;12.434;2023-02-13T07:58:54;100647.91;;;3.26;87.32
61573;BME280;47465;43.094;12.434;2023-02-13T08:01:20;100652.88;;;3.44;86.16
61573;BME280;47465;43.094;12.434;2023-02-13T08:03:49;100628.56;;;3.52;85.44
61573;BME280;47465;43.094;12.434;2023-02-13T08:06:16;100651.34;;;3.80;84.60
61573;BME280;47465;43.094;12.434;2023-02-13T08:08:42;100641.91;;;3.86;83.69
61573;BME280;47465;43.094;12.434;2023-02-13T08:11:24;100658.38;;;4.09;82.24
61573;BME280;47465;43.094;12.434;2023-02-13T08:14:26;100680.19;;;4.36;81.84
61573;BME280;47465;43.094;12.434;2023-02-13T08:16:53;100673.28;;;4.39;80.72
61573;BME280;47465;43.094;12.434;2023-02-13T08:19:19;100677.22;;;4.55;79.85
61573;BME280;47465;43.094;12.434;2023-02-13T08:21:45;100672.22;;;4.64;79.97
61573;BME280;47465;43.094;12.434;2023-02-13T08:24:11;100676.00;;;4.74;78.66
61573;BME280;47465;43.094;12.434;2023-02-13T08:26:38;100679.50;;;4.74;79.67
61573;BME280;47465;43.094;12.434;2023-02-13T08:29:05;100681.72;;;4.91;79.39
61573;BME280;47465;43.094;12.434;2023-02-13T08:31:32;100662.50;;;4.95;78.69
61573;BME280;47465;43.094;12.434;2023-02-13T08:33:58;100656.34;;;4.96;77.06
61573;BME280;47465;43.094;12.434;2023-02-13T08:36:24;100657.72;;;5.15;76.86
61573;BME280;47465;43.094;12.434;2023-02-13T08:38:50;100666.78;;;5.26;75.98
61573;BME280;47465;43.094;12.434;2023-02-13T08:41:16;100651.84;;;5.25;76.14
61573;BME280;47465;43.094;12.434;2023-02-13T08:43:45;100658.44;;;5.44;75.14
61573;BME280;47465;43.094;12.434;2023-02-13T08:46:11;100656.66;;;5.43;73.30
61573;BME280;47465;43.094;12.434;2023-02-13T08:48:38;100647.72;;;5.02;74.33
61573;BME280;47465;43.094;12.434;2023-02-13T08:51:05;100671.81;;;5.15;75.93
61573;BME280;47465;43.094;12.434;2023-02-13T08:53:32;100656.41;;;4.98;75.94
61573;BME280;47465;43.094;12.434;2023-02-13T08:55:58;100661.41;;;5.22;75.12
61573;BME280;47465;43.094;12.434;2023-02-13T08:58:24;100684.34;;;5.61;73.36
61573;BME280;47465;43.094;12.434;2023-02-13T09:00:50;100674.47;;;5.90;71.79
61573;BME280;47465;43.094;12.434;2023-02-13T09:03:16;100659.69;;;5.96;71.69
61573;BME280;47465;43.094;12.434;2023-02-13T09:05:43;100671.47;;;6.12;71.63
61573;BME280;47465;43.094;12.434;2023-02-13T09:08:09;100661.22;;;6.28;70.14
61573;BME280;47465;43.094;12.434;2023-02-13T09:10:39;100663.19;;;6.38;68.84
61573;BME280;47465;43.094;12.434;2023-02-13T09:13:05;100655.19;;;6.35;69.58
61573;BME280;47465;43.094;12.434;2023-02-13T09:15:31;100652.59;;;6.36;69.48
61573;BME280;47465;43.094;12.434;2023-02-13T09:17:57;100651.88;;;6.45;69.12
61573;BME280;47465;43.094;12.434;2023-02-13T09:20:23;100653.91;;;6.58;68.70
61573;BME280;47465;43.094;12.434;2023-02-13T09:22:51;100637.13;;;6.55;68.74
61573;BME280;47465;43.094;12.434;2023-02-13T09:25:17;100623.97;;;6.61;68.43
61573;BME280;47465;43.094;12.434;2023-02-13T09:27:44;100653.50;;;6.84;68.40
61573;BME280;47465;43.094;12.434;2023-02-13T09:30:11;100647.09;;;6.71;68.36
61573;BME280;47465;43.094;12.434;2023-02-13T09:32:42;100653.47;;;6.81;69.00
61573;BME280;47465;43.094;12.434;2023-02-13T09:35:08;100644.78;;;6.88;69.64
61573;BME280;47465;43.094;12.434;2023-02-13T09:37:34;100628.66;;;6.76;69.80
61573;BME280;47465;43.094;12.434;2023-02-13T09:40:01;100627.22;;;6.92;68.74
61573;BME280;47465;43.094;12.434;2023-02-13T09:42:30;100637.38;;;7.20;69.22
61573;BME280;47465;43.094;12.434;2023-02-13T09:44:59;100632.44;;;7.42;68.21
61573;BME280;47465;43.094;12.434;2023-02-13T09:47:27;100655.69;;;7.61;67.54
61573;BME280;47465;43.094;12.434;2023-02-13T09:49:56;100652.34;;;7.75;67.52
61573;BME280;47465;43.094;12.434;2023-02-13T09:52:24;100623.09;;;7.66;66.78
61573;BME280;47465;43.094;12.434;2023-02-13T09:54:51;100651.72;;;7.93;66.44
61573;BME280;47465;43.094;12.434;2023-02-13T09:57:24;100646.44;;;7.94;65.69
61573;BME280;47465;43.094;12.434;2023-02-13T09:59:56;100646.69;;;8.13;65.66
61573;BME280;47465;43.094;12.434;2023-02-13T10:02:40;100644.22;;;8.27;64.73
61573;BME280;47465;43.094;12.434;2023-02-13T10:05:20;100629.66;;;7.94;65.01
61573;BME280;47465;43.094;12.434;2023-02-13T10:07:54;100623.53;;;7.99;65.49
61573;BME280;47465;43.094;12.434;2023-02-13T10:10:30;100649.59;;;8.33;64.49
61573;BME280;47465;43.094;12.434;2023-02-13T10:13:10;100636.34;;;8.34;64.28
61573;BME280;47465;43.094;12.434;2023-02-13T10:15:47;100616.91;;;8.34;64.37
61573;BME280;47465;43.094;12.434;2023-02-13T10:18:20;100643.84;;;8.71;64.08
61573;BME280;47465;43.094;12.434;2023-02-13T10:20:49;100633.19;;;8.64;64.19
61573;BME280;47465;43.094;12.434;2023-02-13T10:23:21;100613.63;;;8.56;63.18
61573;BME280;47465;43.094;12.434;2023-02-13T10:25:53;100636.94;;;8.85;63.33
61573;BME280;47465;43.094;12.434;2023-02-13T10:28:29;100601.59;;;8.88;62.62
61573;BME280;47465;43.094;12.434;2023-02-13T10:30:58;100632.81;;;9.18;62.76
61573;BME280;47465;43.094;12.434;2023-02-13T10:33:29;100617.84;;;9.24;61.90
61573;BME280;47465;43.094;12.434;2023-02-13T10:36:00;100618.00;;;9.46;61.21
61573;BME280;47465;43.094;12.434;2023-02-13T10:38:29;100602.09;;;9.51;60.26
61573;BME280;47465;43.094;12.434;2023-02-13T10:41:19;100622.63;;;9.76;59.45
61573;BME280;47465;43.094;12.434;2023-02-13T10:43:58;100601.34;;;9.72;58.47
61573;BME280;47465;43.094;12.434;2023-02-13T10:46:31;100604.91;;;9.74;58.43
61573;BME280;47465;43.094;12.434;2023-02-13T10:49:22;100597.78;;;9.73;58.35
61573;BME280;47465;43.094;12.434;2023-02-13T10:51:50;100611.13;;;9.80;58.23
61573;BME280;47465;43.094;12.434;2023-02-13T10:54:27;100591.63;;;9.77;58.67
61573;BME280;47465;43.094;12.434;2023-02-13T10:57:04;100595.13;;;9.76;58.05
61573;BME280;47465;43.094;12.434;2023-02-13T10:59:59;100596.09;;;9.85;58.21
61573;BME280;47465;43.094;12.434;2023-02-13T11:02:29;100579.19;;;9.71;58.18
61573;BME280;47465;43.094;12.434;2023-02-13T11:04:59;100564.13;;;9.70;58.52
61573;BME280;47465;43.094;12.434;2023-02-13T11:07:26;100589.03;;;9.87;58.60
61573;BME280;47465;43.094;12.434;2023-02-13T11:09:57;100565.91;;;9.76;58.02
61573;BME280;47465;43.094;12.434;2023-02-13T11:12:27;100571.31;;;9.88;57.59
61573;BME280;47465;43.094;12.434;2023-02-13T11:14:55;100573.09;;;9.95;56.40
61573;BME280;47465;43.094;12.434;2023-02-13T11:17:24;100588.25;;;10.21;54.90
61573;BME280;47465;43.094;12.434;2023-02-13T11:19:53;100561.66;;;10.12;56.12
61573;BME280;47465;43.094;12.434;2023-02-13T11:22:29;100579.50;;;10.33;55.02
61573;BME280;47465;43.094;12.434;2023-02-13T11:24:59;100567.06;;;10.32;54.95
61573;BME280;47465;43.094;12.434;2023-02-13T11:27:30;100555.53;;;10.34;55.08
61573;BME280;47465;43.094;12.434;2023-02-13T11:29:58;100564.44;;;10.48;54.86
61573;BME280;47465;43.094;12.434;2023-02-13T11:32:27;100553.81;;;10.45;53.46
61573;BME280;47465;43.094;12.434;2023-02-13T11:34:53;100562.72;;;10.58;52.49
61573;BME280;47465;43.094;12.434;2023-02-13T11:37:23;100548.53;;;10.61;51.52
61573;BME280;47465;43.094;12.434;2023-02-13T11:39:51;100551.19;;;10.76;52.58
61573;BME280;47465;43.094;12.434;2023-02-13T11:42:26;100551.19;;;10.87;50.73
61573;BME280;47465;43.094;12.434;2023-02-13T11:44:56;100532.53;;;10.78;50.31
61573;BME280;47465;43.094;12.434;2023-02-13T11:47:41;100544.97;;;11.03;49.88
61573;BME280;47465;43.094;12.434;2023-02-13T11:50:20;100541.44;;;11.10;49.99
61573;BME280;47465;43.094;12.434;2023-02-13T11:52:56;100530.78;;;11.10;50.31
61573;BME280;47465;43.094;12.434;2023-02-13T11:55:31;100527.22;;;11.19;49.68
61573;BME280;47465;43.094;12.434;2023-02-13T11:57:59;100523.69;;;11.05;50.15
61573;BME280;47465;43.094;12.434;2023-02-13T12:00:29;100526.34;;;11.11;51.05
61573;BME280;47465;43.094;12.434;2023-02-13T12:02:59;100517.44;;;11.18;49.42
61573;BME280;47465;43.094;12.434;2023-02-13T12:05:26;100523.69;;;11.23;49.77
61573;BME280;47465;43.094;12.434;2023-02-13T12:07:59;100495.28;;;11.05;49.51
61573;BME280;47465;43.094;12.434;2023-02-13T12:10:26;100505.03;;;11.16;49.07
61573;BME280;47465;43.094;12.434;2023-02-13T12:12:54;100501.47;;;11.14;49.31
61573;BME280;47465;43.094;12.434;2023-02-13T12:15:23;100489.91;;;11.21;48.84
61573;BME280;47465;43.094;12.434;2023-02-13T12:17:58;100494.31;;;11.34;48.14
61573;BME280;47465;43.094;12.434;2023-02-13T12:20:29;100481.91;;;11.33;48.82
61573;BME280;47465;43.094;12.434;2023-02-13T12:23:03;100468.59;;;11.31;48.33
61573;BME280;47465;43.094;12.434;2023-02-13T12:25:54;100489.88;;;11.44;47.68
61573;BME280;47465;43.094;12.434;2023-02-13T12:28:35;100465.91;;;11.38;47.52
61573;BME280;47465;43.094;12.434;2023-02-13T12:31:39;100474.78;;;11.43;47.39
61573;BME280;47465;43.094;12.434;2023-02-13T12:37:37;100451.66;;;11.51;46.35
61573;BME280;47465;43.094;12.434;2023-02-13T12:40:21;100464.97;;;11.59;46.43
61573;BME280;47465;43.094;12.434;2023-02-13T12:42:56;100476.41;;;11.82;45.68
61573;BME280;47465;43.094;12.434;2023-02-13T12:45:32;100461.38;;;11.67;45.11
61573;BME280;47465;43.094;12.434;2023-02-13T12:48:16;100443.59;;;11.69;44.96
61573;BME280;47465;43.094;12.434;2023-02-13T12:51:01;100458.63;;;11.83;44.98
61573;BME280;47465;43.094;12.434;2023-02-13T12:53:48;100433.84;;;11.65;44.24
61573;BME280;47465;43.094;12.434;2023-02-13T12:56:35;100448.97;;;11.56;44.59
61573;BME280;47465;43.094;12.434;2023-02-13T12:59:09;100434.63;;;11.81;43.42
61573;BME280;47465;43.094;12.434;2023-02-13T13:02:07;100422.19;;;11.82;43.22
61573;BME280;47465;43.094;12.434;2023-02-13T13:04:49;100426.69;;;11.77;44.16
61573;BME280;47465;43.094;12.434;2023-02-13T13:07:38;100439.03;;;11.96;42.97
61573;BME280;47465;43.094;12.434;2023-02-13T13:10:23;100436.41;;;11.87;43.08
61573;BME280;47465;43.094;12.434;2023-02-13T13:13:00;100441.72;;;11.93;44.21
61573;BME280;47465;43.094;12.434;2023-02-13T13:15:38;100447.84;;;12.07;43.32